Parowan, Utah
Current Conditions -  °F | °C
As of 8:53 AM on Monday 24 Nov 2014 (Local Time) from KCDC Reporting Station
Clear Clear  
Wind Chill: 24°   Ceiling: Unl
Heat Index: 24°   Visibility: 10mi
Dew Point: 16°   Wind: 3mph
Humidity: 71%   Direction: 40°NE
Pressure: 30.32"   Gusts: NA
Location:  37.84°N, 112.83°W
Report Text: KCDC 241553Z AUTO 04003KT 10SM CLR M04/M09 A3032 RMK AO2 SLP302 T10441089
Loading
Personal Weather Stations






























Interactive Weather Map New forecast layout! Learn more

10-Day Weather Forecast

Advertisements
Track Severe Weather on mobile